KFAR/FAR METAR and TAF weather

Enter ICAO airport designator
Station Type Date Time Source
KFAR METAR 2019/12/08 11:33 UTC NOAA

KFAR 081133Z 34022G31KT 4SM UP BR OVC006 M06/M07 A2980 RMK AO2 PK WND 34031/1131 UPB1059E00B27FZRAB00E27 P0000 I1000 T10611072


Station Type Date Time Source
KFAR Decoded METAR 2019/12/08 11:33 UTC NOAA

HECTOR INTERNATIONAL AIRPORT , ND, United States (KFAR) 46-56N 096-49W 277M
Dec 08, 2019 - 06:33 AM EST / 2019.12.08 1133 UTC
Wind: from the NNW (340 degrees) at 25 MPH (22 KT) gusting to 36 MPH (31 KT):0
Visibility: 4 mile(s):0
Sky conditions: overcast
Weather: precipitation; mist
Precipitation last hour: A trace
Temperature: 21.0 F (-6.1 C)
Windchill: 3 F (-16 C):1
Dew Point: 19.0 F (-7.2 C)
Relative Humidity: 91%
Pressure (altimeter): 29.8 in. Hg (1009 hPa)
ob: KFAR 081133Z 34022G31KT 4SM UP BR OVC006 M06/M07 A2980 RMK AO2 PK WND 34031/1131 UPB1059E00B27FZRAB00E27 P0000 I1000 T10611072
cycle: 11

Station Type Date Time Source
KFAR TAF 2019/12/08 12:36 UTC NOAA

TAF KFAR 081133Z 0812/0912 34021G29KT 3SM -FZRA OVC006
FM081300 35018G25KT P6SM BKN015
FM090000 36014G23KT 2SM -SN BLSN OVC015
FM090500 36014G22KT 3/4SM -SN BLSN OVC011
FM091100 34014KT 2SM -SN BLSN OVC015

Example: see airport list